createdAt,value
2018-12-10T00:02:22.955Z,99800.03
2018-12-10T00:04:50.608Z,99806.39
2018-12-10T00:07:18.274Z,99814.84
2018-12-10T00:09:45.899Z,99817.70
2018-12-10T00:12:13.517Z,99812.14
2018-12-10T00:14:42.039Z,99824.69
2018-12-10T00:17:10.580Z,99826.43
2018-12-10T00:19:38.186Z,99828.22
2018-12-10T00:22:06.620Z,99836.42
2018-12-10T00:24:34.241Z,99838.94
2018-12-10T00:27:03.379Z,99846.09
2018-12-10T00:29:32.537Z,99848.89
2018-12-10T00:32:00.986Z,99842.31
2018-12-10T00:34:29.463Z,99861.43
2018-12-10T00:36:58.064Z,99852.42
2018-12-10T00:39:25.689Z,99852.70
2018-12-10T00:41:53.440Z,99857.94
2018-12-10T00:44:21.058Z,99865.45
2018-12-10T00:46:49.381Z,99872.27
2018-12-10T00:49:18.062Z,99866.98
2018-12-10T00:51:45.766Z,99876.14
2018-12-10T00:54:14.357Z,99887.28
2018-12-10T00:56:42.902Z,99892.39
2018-12-10T00:59:10.584Z,99894.97
2018-12-10T01:01:39.002Z,99905.98
2018-12-10T01:04:07.481Z,99910.27
2018-12-10T01:06:35.149Z,99916.48
2018-12-10T01:09:05.557Z,99931.83
2018-12-10T01:11:34.056Z,99918.06
2018-12-10T01:14:02.830Z,99928.71
2018-12-10T01:16:31.640Z,99933.91
2018-12-10T01:19:00.082Z,99941.00
2018-12-10T01:21:28.648Z,99943.72
2018-12-10T01:23:57.205Z,99946.92
2018-12-10T01:26:25.662Z,99959.00
2018-12-10T01:28:53.271Z,99951.35
2018-12-10T01:31:20.876Z,99959.36
2018-12-10T01:33:48.490Z,99968.50
2018-12-10T01:36:16.101Z,99970.98
2018-12-10T01:38:43.712Z,99970.34
2018-12-10T01:41:11.328Z,99985.46
2018-12-10T01:43:38.956Z,99990.95
2018-12-10T01:46:06.604Z,99985.78
2018-12-10T01:48:34.213Z,99989.81
2018-12-10T01:51:02.675Z,99986.13
2018-12-10T01:53:30.309Z,99993.78
2018-12-10T01:55:57.930Z,99995.75
2018-12-10T01:58:25.628Z,100001.39
2018-12-10T02:00:53.250Z,100013.69
2018-12-10T02:03:20.863Z,100012.01
2018-12-10T02:05:48.476Z,100017.50
2018-12-10T02:08:16.137Z,100007.33
2018-12-10T02:10:43.749Z,100020.38
2018-12-10T02:13:12.343Z,100011.70
2018-12-10T02:15:40.899Z,100021.44
2018-12-10T02:18:08.522Z,100017.05
2018-12-10T02:20:37.049Z,100025.94
2018-12-10T02:23:04.659Z,100031.31
2018-12-10T02:25:32.734Z,100032.70
2018-12-10T02:28:00.365Z,100021.89
2018-12-10T02:30:27.996Z,100030.63
2018-12-10T02:32:56.590Z,100047.95
2018-12-10T02:35:24.223Z,100037.17
2018-12-10T02:37:52.628Z,100035.88
2018-12-10T02:40:21.076Z,100037.23
2018-12-10T02:42:49.530Z,100039.75
2018-12-10T02:45:18.277Z,100042.30
2018-12-10T02:47:45.951Z,100049.99
2018-12-10T02:50:14.421Z,100057.59
2018-12-10T02:52:42.142Z,100047.20
2018-12-10T02:55:10.581Z,100050.82
2018-12-10T02:57:38.224Z,100060.36
2018-12-10T03:00:06.408Z,100054.91
2018-12-10T03:02:34.030Z,100070.48
2018-12-10T03:05:02.576Z,100059.48
2018-12-10T03:07:32.277Z,100063.66
2018-12-10T03:10:02.734Z,100071.42
2018-12-10T03:12:31.521Z,100075.05
2018-12-10T03:14:59.949Z,100083.34
2018-12-10T03:17:28.364Z,100084.37
2018-12-10T03:19:58.197Z,100096.39
2018-12-10T03:22:25.897Z,100098.05
2018-12-10T03:24:53.535Z,100093.97
2018-12-10T03:27:22.025Z,100098.73
2018-12-10T03:29:49.642Z,100103.70
2018-12-10T03:32:17.277Z,100092.20
2018-12-10T03:34:45.647Z,100104.27
2018-12-10T03:37:13.271Z,100107.94
2018-12-10T03:39:41.719Z,100102.86
2018-12-10T03:42:09.349Z,100108.92
2018-12-10T03:44:37.746Z,100115.63
2018-12-10T03:47:05.873Z,100133.03
2018-12-10T03:49:34.388Z,100132.39
2018-12-10T03:52:03.108Z,100131.13
2018-12-10T03:54:32.250Z,100143.56
2018-12-10T03:56:59.870Z,100145.72
2018-12-10T03:59:27.549Z,100145.30
2018-12-10T04:01:55.253Z,100137.97
2018-12-10T04:04:23.667Z,100153.23
2018-12-10T04:06:51.287Z,100150.86
2018-12-10T04:09:18.898Z,100153.91
2018-12-10T04:11:47.380Z,100159.45
2018-12-10T04:14:15.850Z,100165.59
2018-12-10T04:16:43.482Z,100166.37
2018-12-10T04:19:12.025Z,100158.16
2018-12-10T04:21:40.571Z,100177.60
2018-12-10T04:24:09.198Z,100171.52
2018-12-10T04:26:37.224Z,100182.09
2018-12-10T04:29:05.772Z,100182.69
2018-12-10T04:31:36.367Z,100181.64
2018-12-10T04:34:04.911Z,100190.35
2018-12-10T04:36:32.591Z,100192.12
2018-12-10T04:39:01.471Z,100186.42
2018-12-10T04:41:30.140Z,100178.05
2018-12-10T04:43:58.548Z,100194.36
2018-12-10T04:46:26.170Z,100195.54
2018-12-10T04:48:54.621Z,100193.94
2018-12-10T04:51:22.250Z,100201.69
2018-12-10T04:53:49.869Z,100199.69
2018-12-10T04:56:18.435Z,100194.05
2018-12-10T04:58:46.078Z,100204.64
2018-12-10T05:01:13.708Z,100213.44
2018-12-10T05:03:41.373Z,100220.73
2018-12-10T05:06:09.802Z,100217.69
2018-12-10T05:08:38.287Z,100220.33
2018-12-10T05:11:06.849Z,100231.18
2018-12-10T05:13:35.431Z,100224.33
2018-12-10T05:16:03.894Z,100228.48
2018-12-10T05:18:32.871Z,100235.45
2018-12-10T05:21:00.501Z,100248.75
2018-12-10T05:23:28.158Z,100248.30
2018-12-10T05:25:55.788Z,100265.41
2018-12-10T05:28:23.401Z,100260.56
2018-12-10T05:30:51.019Z,100262.11
2018-12-10T05:33:18.636Z,100260.42
2018-12-10T05:35:46.270Z,100260.31
2018-12-10T05:38:13.891Z,100266.90
2018-12-10T05:40:41.745Z,100257.92
2018-12-10T05:43:09.377Z,100267.72
2018-12-10T05:45:37.041Z,100260.30
2018-12-10T05:48:04.670Z,100264.58
2018-12-10T05:50:32.867Z,100284.82
2018-12-10T05:53:00.488Z,100275.28
2018-12-10T05:55:29.077Z,100291.27
2018-12-10T05:57:56.692Z,100287.03
2018-12-10T06:00:24.343Z,100295.61
2018-12-10T06:02:52.756Z,100309.94
2018-12-10T06:05:20.385Z,100301.85
2018-12-10T06:07:48.050Z,100299.69
2018-12-10T06:10:16.484Z,100300.91
2018-12-10T06:12:45.025Z,100304.84
2018-12-10T06:15:12.639Z,100299.80
2018-12-10T06:17:40.269Z,100317.29
2018-12-10T06:20:08.968Z,100319.55
2018-12-10T06:22:36.628Z,100319.94
2018-12-10T06:25:05.979Z,100331.76
2018-12-10T06:27:34.932Z,100321.73
2018-12-10T06:30:05.078Z,100322.32
2018-12-10T06:32:33.605Z,100344.26
2018-12-10T06:35:02.601Z,100340.44
2018-12-10T06:37:37.364Z,100343.59
2018-12-10T06:40:03.191Z,100342.30
2018-12-10T06:42:32.410Z,100352.10
2018-12-10T06:45:01.931Z,100359.73
2018-12-10T06:47:29.848Z,100352.95
2018-12-10T06:49:59.201Z,100366.08
2018-12-10T06:52:26.828Z,100361.88
2018-12-10T06:54:54.657Z,100366.97
2018-12-10T06:57:23.090Z,100370.17
2018-12-10T06:59:50.872Z,100376.50
2018-12-10T07:02:18.487Z,100376.75
2018-12-10T07:04:46.295Z,100374.39
2018-12-10T07:07:14.021Z,100379.12
2018-12-10T07:09:41.773Z,100379.90
2018-12-10T07:12:09.396Z,100392.78
2018-12-10T07:14:37.833Z,100398.79
2018-12-10T07:17:05.559Z,100411.64
2018-12-10T07:19:33.982Z,100395.38
2018-12-10T07:22:02.136Z,100406.14
2018-12-10T07:24:29.795Z,100406.53
2018-12-10T07:26:57.431Z,100409.91
2018-12-10T07:29:25.050Z,100414.05
2018-12-10T07:31:52.922Z,100412.93
2018-12-10T07:34:21.333Z,100421.36
2018-12-10T07:36:49.472Z,100426.22
2018-12-10T07:39:17.850Z,100424.59
2018-12-10T07:41:45.530Z,100426.44
2018-12-10T07:44:13.939Z,100415.80
2018-12-10T07:46:41.598Z,100408.22
2018-12-10T07:49:09.230Z,100422.70
2018-12-10T07:51:36.854Z,100434.59
2018-12-10T07:54:04.555Z,100432.33
2018-12-10T07:56:32.778Z,100440.30
2018-12-10T07:59:01.417Z,100448.67
2018-12-10T08:01:29.768Z,100458.20
2018-12-10T08:03:57.426Z,100437.28
2018-12-10T08:06:25.047Z,100451.75
2018-12-10T08:08:52.664Z,100449.56
2018-12-10T08:11:20.287Z,100443.56
2018-12-10T08:13:47.947Z,100444.18
2018-12-10T08:16:15.569Z,100447.19
2018-12-10T08:18:43.352Z,100458.70
2018-12-10T08:21:10.982Z,100449.55
2018-12-10T08:23:39.438Z,100458.53
2018-12-10T08:26:08.028Z,100453.82
2018-12-10T08:28:36.565Z,100464.25
2018-12-10T08:31:05.109Z,100456.30
2018-12-10T08:33:33.672Z,100450.08
2018-12-10T08:36:01.594Z,100458.55
2018-12-10T08:38:30.028Z,100466.91
2018-12-10T08:40:57.656Z,100462.88
2018-12-10T08:43:25.318Z,100459.89
2018-12-10T08:45:52.943Z,100471.39
2018-12-10T08:48:21.467Z,100472.45
2018-12-10T08:50:50.005Z,100471.83
2018-12-10T08:53:18.472Z,100468.70
2018-12-10T08:55:46.100Z,100460.80
2018-12-10T08:58:13.734Z,100471.56
2018-12-10T09:00:41.366Z,100483.50
2018-12-10T09:03:08.991Z,100488.80
2018-12-10T09:05:36.624Z,100483.63
2018-12-10T09:08:04.247Z,100474.92
2018-12-10T09:10:34.630Z,100485.30
2018-12-10T09:13:02.820Z,100487.26
2018-12-10T09:15:30.478Z,100486.09
2018-12-10T09:17:58.097Z,100489.26
2018-12-10T09:20:25.725Z,100498.92
2018-12-10T09:22:53.336Z,100493.95
2018-12-10T09:25:24.687Z,100518.87
2018-12-10T09:27:50.713Z,100518.69
2018-12-10T09:30:18.352Z,100521.41
2018-12-10T09:32:46.122Z,100522.67
2018-12-10T09:35:13.750Z,100527.50
2018-12-10T09:37:41.409Z,100524.48
2018-12-10T09:40:09.206Z,100530.37
2018-12-10T09:42:36.845Z,100527.28
2018-12-10T09:45:06.323Z,100524.54
2018-12-10T09:47:33.951Z,100531.67
2018-12-10T09:50:02.623Z,100535.66
2018-12-10T09:52:32.206Z,100523.65
2018-12-10T09:54:59.837Z,100523.30
2018-12-10T09:57:28.419Z,100536.77
2018-12-10T09:59:56.563Z,100536.78
2018-12-10T10:02:24.249Z,100524.83
2018-12-10T10:04:51.859Z,100542.91
2018-12-10T10:07:19.482Z,100549.23
2018-12-10T10:09:47.210Z,100543.52
2018-12-10T10:12:14.892Z,100527.86
2018-12-10T10:14:42.518Z,100557.55
2018-12-10T10:17:10.189Z,100554.73
2018-12-10T10:19:38.739Z,100539.23
2018-12-10T10:24:34.227Z,100546.49
2018-12-10T10:27:02.909Z,100552.79
2018-12-10T10:29:31.434Z,100550.70
2018-12-10T10:31:59.423Z,100559.18
2018-12-10T10:34:27.118Z,100546.98
2018-12-10T10:36:55.698Z,100561.07
2018-12-10T10:39:24.285Z,100545.13
2018-12-10T10:41:52.820Z,100532.89
2018-12-10T10:44:20.444Z,100550.81
2018-12-10T10:46:49.050Z,100543.86
2018-12-10T10:49:16.657Z,100531.22
2018-12-10T10:51:44.339Z,100546.42
2018-12-10T10:54:11.954Z,100528.45
2018-12-10T10:56:40.373Z,100552.69
2018-12-10T10:59:07.987Z,100537.41
2018-12-10T11:01:42.136Z,100530.94
2018-12-10T11:04:10.598Z,100530.02
2018-12-10T11:06:39.181Z,100542.45
2018-12-10T11:09:14.985Z,100541.73
2018-12-10T11:11:37.365Z,100536.59
2018-12-10T11:14:05.097Z,100531.73
2018-12-10T11:16:33.620Z,100528.50
2018-12-10T11:19:01.450Z,100541.01
2018-12-10T11:21:29.942Z,100533.30
2018-12-10T11:23:57.953Z,100538.84
2018-12-10T11:26:25.664Z,100538.00
2018-12-10T11:28:53.321Z,100539.37
2018-12-10T11:31:20.971Z,100526.47
2018-12-10T11:33:48.698Z,100531.48
2018-12-10T11:36:16.360Z,100534.48
2018-12-10T11:38:44.893Z,100528.69
2018-12-10T11:41:13.438Z,100542.21
2018-12-10T11:43:41.088Z,100538.64
2018-12-10T11:46:08.761Z,100544.23
2018-12-10T11:48:36.962Z,100540.90
2018-12-10T11:51:04.588Z,100540.85
2018-12-10T11:53:32.754Z,100540.24
2018-12-10T11:56:00.371Z,100538.95
2018-12-10T11:58:27.989Z,100543.52
2018-12-10T12:00:55.588Z,100537.41
2018-12-10T12:03:23.204Z,100543.41
2018-12-10T12:05:51.616Z,100537.97
2018-12-10T12:08:19.236Z,100544.69
2018-12-10T12:10:46.885Z,100539.98
2018-12-10T12:13:14.514Z,100541.05
2018-12-10T12:15:42.518Z,100549.52
2018-12-10T12:18:10.137Z,100542.33
2018-12-10T12:20:38.716Z,100544.80
2018-12-10T12:23:07.133Z,100540.44
2018-12-10T12:25:35.478Z,100530.55
2018-12-10T12:28:03.945Z,100545.53
2018-12-10T12:30:32.614Z,100534.20
2018-12-10T12:33:01.516Z,100536.84
2018-12-10T12:35:30.050Z,100547.94
2018-12-10T12:37:57.664Z,100534.80
2018-12-10T12:40:25.286Z,100538.63
2018-12-10T12:42:52.906Z,100538.19
2018-12-10T12:45:20.512Z,100531.80
2018-12-10T12:47:48.157Z,100531.17
2018-12-10T12:50:15.783Z,100530.11
2018-12-10T12:52:43.416Z,100533.13
2018-12-10T12:55:11.196Z,100533.52
2018-12-10T12:57:38.811Z,100542.55
2018-12-10T13:00:06.607Z,100533.25
2018-12-10T13:02:34.242Z,100531.05
2018-12-10T13:05:02.684Z,100533.80
2018-12-10T13:07:30.384Z,100535.88
2018-12-10T13:09:59.532Z,100541.38
2018-12-10T13:12:27.260Z,100538.41
2018-12-10T13:14:54.860Z,100526.05
2018-12-10T13:17:23.364Z,100522.87
2018-12-10T13:19:51.773Z,100521.05
2018-12-10T13:22:19.428Z,100520.56
2018-12-10T13:24:47.995Z,100531.17
2018-12-10T13:27:15.644Z,100537.95
2018-12-10T13:29:43.261Z,100530.20
2018-12-10T13:32:11.730Z,100532.24
2018-12-10T13:34:39.358Z,100532.73
2018-12-10T13:37:06.994Z,100533.34
2018-12-10T13:39:35.524Z,100526.55
2018-12-10T13:42:04.034Z,100531.21
2018-12-10T13:44:32.490Z,100535.25
2018-12-10T13:47:00.922Z,100538.43
2018-12-10T13:49:28.551Z,100545.05
2018-12-10T13:51:56.167Z,100552.14
2018-12-10T13:54:24.653Z,100545.63
2018-12-10T13:56:53.198Z,100551.50
2018-12-10T13:59:21.271Z,100547.58
2018-12-10T14:01:48.969Z,100556.00
2018-12-10T14:04:17.163Z,100557.44
2018-12-10T14:06:44.789Z,100554.95
2018-12-10T14:09:13.204Z,100554.46
2018-12-10T14:11:41.776Z,100548.52
2018-12-10T14:14:09.439Z,100563.09
2018-12-10T14:16:37.112Z,100552.67
2018-12-10T14:19:04.816Z,100563.24
2018-12-10T14:21:32.950Z,100562.31
2018-12-10T14:24:00.570Z,100562.56
2018-12-10T14:26:29.158Z,100566.04
2018-12-10T14:28:56.900Z,100564.95
2018-12-10T14:31:27.479Z,100570.44
2018-12-10T14:33:57.181Z,100571.64
2018-12-10T14:36:24.800Z,100566.33
2018-12-10T14:38:52.460Z,100568.41
2018-12-10T14:41:21.026Z,100582.50
2018-12-10T14:43:48.798Z,100569.16
2018-12-10T14:46:17.251Z,100566.81
2018-12-10T14:48:44.864Z,100576.25
2018-12-10T14:51:13.307Z,100569.91
2018-12-10T14:53:40.974Z,100570.34
2018-12-10T14:56:09.654Z,100571.15
2018-12-10T14:58:37.295Z,100556.64
2018-12-10T15:01:05.857Z,100569.55
2018-12-10T15:03:34.198Z,100574.27
2018-12-10T15:06:02.515Z,100571.03
2018-12-10T15:08:30.168Z,100557.55
2018-12-10T15:10:57.868Z,100566.88
2018-12-10T15:13:26.428Z,100578.14
2018-12-10T15:15:54.081Z,100578.03
2018-12-10T15:18:21.692Z,100576.84
2018-12-10T15:20:49.349Z,100572.04
2018-12-10T15:23:16.976Z,100579.67
2018-12-10T15:25:44.646Z,100568.16
2018-12-10T15:28:13.066Z,100571.19
2018-12-10T15:30:40.747Z,100560.83
2018-12-10T15:33:08.366Z,100550.34
2018-12-10T15:35:35.988Z,100556.55
2018-12-10T15:38:03.940Z,100542.46
2018-12-10T15:40:32.692Z,100554.46
2018-12-10T15:43:00.320Z,100555.47
2018-12-10T15:45:28.831Z,100552.68
2018-12-10T15:47:56.451Z,100553.62
2018-12-10T15:50:25.021Z,100558.19
2018-12-10T15:52:52.690Z,100547.92
2018-12-10T15:55:20.383Z,100545.43
2018-12-10T15:57:48.054Z,100545.56
2018-12-10T16:00:15.660Z,100546.87
2018-12-10T16:02:43.327Z,100549.98
2018-12-10T16:05:11.015Z,100547.41
2018-12-10T16:07:39.208Z,100551.59
2018-12-10T16:10:08.085Z,100546.68
2018-12-10T16:12:35.792Z,100554.72
2018-12-10T16:15:05.681Z,100549.45
2018-12-10T16:17:34.019Z,100556.55
2018-12-10T16:20:02.869Z,100544.38
2018-12-10T16:22:30.498Z,100539.72
2018-12-10T16:24:59.040Z,100538.92
2018-12-10T16:27:26.935Z,100549.95
2018-12-10T16:29:54.578Z,100546.34
2018-12-10T16:32:22.337Z,100558.93
2018-12-10T16:34:50.006Z,100558.75
2018-12-10T16:37:17.635Z,100558.22
2018-12-10T16:39:45.260Z,100553.41
2018-12-10T16:42:13.846Z,100564.56
2018-12-10T16:44:41.451Z,100556.97
2018-12-10T16:47:09.068Z,100563.02
2018-12-10T16:49:36.699Z,100556.07
2018-12-10T16:52:04.324Z,100573.23
2018-12-10T16:54:32.344Z,100561.33
2018-12-10T16:56:59.956Z,100563.19
2018-12-10T16:59:28.439Z,100565.14
2018-12-10T17:01:56.849Z,100565.11
2018-12-10T17:04:25.439Z,100551.68
2018-12-10T17:06:54.077Z,100555.55
2018-12-10T17:09:23.051Z,100541.50
2018-12-10T17:11:51.695Z,100554.34
2018-12-10T17:14:20.169Z,100554.56
2018-12-10T17:16:47.886Z,100542.16
2018-12-10T17:19:15.547Z,100541.77
2018-12-10T17:21:43.986Z,100537.86
2018-12-10T17:24:11.601Z,100543.91
2018-12-10T17:26:39.251Z,100549.45
2018-12-10T17:29:06.877Z,100538.63
2018-12-10T17:31:35.375Z,100542.66
2018-12-10T17:34:03.870Z,100552.47
2018-12-10T17:36:31.623Z,100551.14
2018-12-10T17:38:59.248Z,100544.38
2018-12-10T17:41:27.864Z,100545.63
2018-12-10T17:43:55.565Z,100550.39
2018-12-10T17:46:24.209Z,100551.19
2018-12-10T17:48:51.815Z,100547.31
2018-12-10T17:51:20.268Z,100544.30
2018-12-10T17:53:48.114Z,100549.11
2018-12-10T17:56:15.977Z,100552.80
2018-12-10T17:58:43.770Z,100549.37
2018-12-10T18:01:12.286Z,100536.41
2018-12-10T18:03:39.921Z,100539.42
2018-12-10T18:06:07.540Z,100534.71
2018-12-10T18:08:35.157Z,100536.88
2018-12-10T18:11:03.578Z,100538.34
2018-12-10T18:13:32.712Z,100542.75
2018-12-10T18:16:00.331Z,100538.88
2018-12-10T18:18:28.777Z,100538.98
2018-12-10T18:20:57.349Z,100537.55
2018-12-10T18:23:25.033Z,100538.88
2018-12-10T18:25:52.655Z,100535.37
2018-12-10T18:28:20.275Z,100539.38
2018-12-10T18:30:48.075Z,100544.89
2018-12-10T18:33:15.683Z,100537.55
2018-12-10T18:35:43.312Z,100535.82
2018-12-10T18:38:10.927Z,100537.64
2018-12-10T18:40:38.563Z,100533.02
2018-12-10T18:43:06.191Z,100526.34
2018-12-10T18:45:33.820Z,100516.48
2018-12-10T18:48:01.526Z,100507.91
2018-12-10T18:50:29.144Z,100518.88
2018-12-10T18:52:56.770Z,100511.30
2018-12-10T18:55:24.395Z,100523.77
2018-12-10T18:57:52.089Z,100504.63
2018-12-10T19:00:19.710Z,100508.40
2018-12-10T19:02:47.371Z,100508.48
2018-12-10T19:05:15.001Z,100508.98
2018-12-10T19:07:42.687Z,100510.98
2018-12-10T19:10:10.303Z,100511.42
2018-12-10T19:12:38.379Z,100510.19
2018-12-10T19:15:07.563Z,100509.59
2018-12-10T19:17:35.178Z,100513.56
2018-12-10T19:20:04.846Z,100514.31
2018-12-10T19:22:32.588Z,100522.80
2018-12-10T19:25:00.332Z,100515.50
2018-12-10T19:27:27.961Z,100510.45
2018-12-10T19:29:55.580Z,100497.56
2018-12-10T19:32:23.208Z,100512.58
2018-12-10T19:34:50.843Z,100500.58
2018-12-10T19:37:19.278Z,100508.85
2018-12-10T19:39:46.906Z,100508.98
2018-12-10T19:42:14.541Z,100524.27
2018-12-10T19:44:42.163Z,100525.25
2018-12-10T19:47:09.795Z,100514.19
2018-12-10T19:49:38.216Z,100506.89
2018-12-10T19:52:06.294Z,100512.09
2018-12-10T19:54:33.995Z,100508.67
2018-12-10T19:57:02.656Z,100508.72
2018-12-10T19:59:30.312Z,100504.85
2018-12-10T20:01:58.796Z,100509.30
2018-12-10T20:04:26.415Z,100512.49
2018-12-10T20:06:59.598Z,100502.33
2018-12-10T20:09:27.231Z,100510.55
2018-12-10T20:11:54.861Z,100512.75
2018-12-10T20:14:22.486Z,100511.56
2018-12-10T20:16:50.117Z,100507.25
2018-12-10T20:19:17.809Z,100513.85
2018-12-10T20:21:45.430Z,100520.70
2018-12-10T20:24:13.177Z,100520.66
2018-12-10T20:26:40.907Z,100509.50
2018-12-10T20:29:08.546Z,100511.64
2018-12-10T20:31:36.974Z,100507.38
2018-12-10T20:34:04.691Z,100515.67
2018-12-10T20:36:32.900Z,100506.70
2018-12-10T20:39:00.528Z,100512.66
2018-12-10T20:41:28.145Z,100511.45
2018-12-10T20:43:55.770Z,100510.44
2018-12-10T20:46:23.388Z,100509.31
2018-12-10T20:48:51.040Z,100507.17
2018-12-10T20:51:18.671Z,100506.45
2018-12-10T20:53:46.291Z,100517.97
2018-12-10T20:56:13.923Z,100509.31
2018-12-10T20:58:41.723Z,100511.89
2018-12-10T21:01:09.420Z,100516.96
2018-12-10T21:03:37.030Z,100515.71
2018-12-10T21:06:10.388Z,100520.78
2018-12-10T21:08:38.881Z,100518.53
2018-12-10T21:11:06.556Z,100527.62
2018-12-10T21:13:34.179Z,100524.03
2018-12-10T21:16:02.554Z,100524.48
2018-12-10T21:18:30.192Z,100525.85
2018-12-10T21:20:58.607Z,100536.47
2018-12-10T21:23:26.411Z,100525.67
2018-12-10T21:25:54.085Z,100533.77
2018-12-10T21:28:21.827Z,100535.86
2018-12-10T21:30:49.505Z,100533.36
2018-12-10T21:33:17.173Z,100541.53
2018-12-10T21:35:45.846Z,100542.42
2018-12-10T21:38:14.392Z,100536.87
2018-12-10T21:40:42.301Z,100535.55
2018-12-10T21:43:09.980Z,100530.30
2018-12-10T21:45:37.614Z,100533.72
2018-12-10T21:48:05.316Z,100529.02
2018-12-10T21:50:33.620Z,100527.55
2018-12-10T21:53:03.688Z,100522.45
2018-12-10T21:55:31.707Z,100525.87
2018-12-10T21:57:59.394Z,100521.78
2018-12-10T22:00:27.019Z,100522.18
2018-12-10T22:02:54.761Z,100525.91
2018-12-10T22:05:22.401Z,100521.87
2018-12-10T22:07:50.023Z,100521.83
2018-12-10T22:10:17.641Z,100512.84
2018-12-10T22:12:45.263Z,100506.94
2018-12-10T22:15:12.887Z,100514.22
2018-12-10T22:17:40.505Z,100504.94
2018-12-10T22:20:08.440Z,100503.97
2018-12-10T22:22:36.060Z,100510.41
2018-12-10T22:25:06.026Z,100516.48
2018-12-10T22:27:34.080Z,100517.38
2018-12-10T22:30:04.546Z,100514.63
2018-12-10T22:32:32.628Z,100517.08
2018-12-10T22:35:00.242Z,100518.75
2018-12-10T22:37:28.655Z,100515.34
2018-12-10T22:39:56.279Z,100527.30
2018-12-10T22:42:23.899Z,100517.56
2018-12-10T22:44:51.516Z,100516.90
2018-12-10T22:47:20.049Z,100522.17
2018-12-10T22:49:48.474Z,100515.33
2018-12-10T22:52:16.133Z,100519.92
2018-12-10T22:54:44.582Z,100524.71
2018-12-10T22:57:12.211Z,100531.46
2018-12-10T22:59:40.659Z,100526.79
2018-12-10T23:02:08.351Z,100522.05
2018-12-10T23:04:35.977Z,100519.38
2018-12-10T23:07:04.724Z,100516.31
2018-12-10T23:09:33.847Z,100508.67
2018-12-10T23:12:01.463Z,100513.20
2018-12-10T23:14:29.871Z,100508.09
2018-12-10T23:16:57.490Z,100503.34
2018-12-10T23:19:25.474Z,100508.76
2018-12-10T23:21:54.053Z,100504.54
2018-12-10T23:24:21.666Z,100509.61
2018-12-10T23:26:49.321Z,100513.64
2018-12-10T23:29:16.945Z,100515.25
2018-12-10T23:31:44.550Z,100515.73
2018-12-10T23:34:12.161Z,100520.50
2018-12-10T23:36:39.852Z,100516.48
2018-12-10T23:39:07.531Z,100517.73
2018-12-10T23:41:35.155Z,100525.83
2018-12-10T23:44:03.266Z,100523.50
2018-12-10T23:46:30.879Z,100521.46
2018-12-10T23:48:58.522Z,100537.06
2018-12-10T23:51:26.143Z,100532.70
2018-12-10T23:53:53.760Z,100525.73
2018-12-10T23:56:22.406Z,100529.11
2018-12-10T23:58:50.869Z,100534.39
